Time,TemperatureF,DewpointF,PressureIn,WindDirection,WindDirectionDegrees,WindSpeedMPH,WindSpeedGustMPH,Humidity,HourlyPrecipIn,Conditions,Clouds,dailyrainin,SoftwareType,DateUTC
2014-01-14 00:00:00,51.0,46.0,29.83,NW,310,0.0,0.0,83,0.02,,,0.02,VWS V14.01,2014-01-14 05:00:00,
2014-01-14 00:03:00,52.8,41.4,29.89,NW,310,0.0,0.0,65,0.00,,,0.00,VWS V14.01,2014-01-14 05:03:00,
2014-01-14 00:08:00,52.8,41.8,29.89,NW,310,0.0,0.0,66,0.00,,,0.00,VWS V14.01,2014-01-14 05:08:00,
2014-01-14 00:13:00,52.8,41.8,29.89,NW,310,0.0,0.0,66,0.00,,,0.00,VWS V14.01,2014-01-14 05:13:00,
2014-01-14 00:18:00,52.8,41.8,29.89,NW,310,0.0,0.0,66,0.00,,,0.00,VWS V14.01,2014-01-14 05:18:00,
2014-01-14 00:23:00,52.8,42.2,29.89,NW,310,0.0,0.0,67,0.00,,,0.00,VWS V14.01,2014-01-14 05:23:00,
2014-01-14 00:28:00,52.8,42.2,29.89,NW,310,0.0,0.0,67,0.00,,,0.00,VWS V14.01,2014-01-14 05:28:00,
2014-01-14 00:30:00,50.1,46.4,29.82,NW,310,0.0,0.0,87,0.06,,,0.06,VWS V14.01,2014-01-14 05:30:00,
2014-01-14 00:33:00,52.8,42.2,29.87,NW,310,0.0,0.0,67,0.00,,,0.00,VWS V14.01,2014-01-14 05:33:00,
2014-01-14 00:37:00,52.2,45.6,29.81,NW,310,0.0,0.0,78,0.01,,,0.01,VWS V14.01,2014-01-14 05:37:00,
2014-01-14 00:38:00,52.8,42.5,29.87,NW,310,0.0,0.0,68,0.00,,,0.00,VWS V14.01,2014-01-14 05:38:00,
2014-01-14 00:39:00,52.2,45.6,29.81,NW,310,0.0,0.0,78,0.01,,,0.01,VWS V14.01,2014-01-14 05:39:00,
2014-01-14 00:40:00,52.0,45.4,29.81,NW,310,0.0,0.0,78,0.01,,,0.01,VWS V14.01,2014-01-14 05:40:00,
2014-01-14 00:41:00,52.0,45.7,29.81,NW,310,0.0,0.0,79,0.01,,,0.01,VWS V14.01,2014-01-14 05:41:00,
2014-01-14 00:42:00,51.9,45.6,29.81,NW,310,0.0,0.0,79,0.01,,,0.01,VWS V14.01,2014-01-14 05:42:00,
2014-01-14 00:43:00,52.8,42.5,29.87,NW,310,0.0,0.0,68,0.00,,,0.00,VWS V14.01,2014-01-14 05:43:00,
2014-01-14 00:48:00,52.8,42.9,29.87,NW,310,0.0,0.0,69,0.00,,,0.00,VWS V14.01,2014-01-14 05:48:00,
2014-01-14 00:53:00,52.8,42.9,29.87,NW,310,0.0,0.0,69,0.00,,,0.00,VWS V14.01,2014-01-14 05:53:00,
2014-01-14 00:58:00,52.8,42.9,29.87,NW,310,0.0,0.0,69,0.00,,,0.00,VWS V14.01,2014-01-14 05:58:00,
2014-01-14 01:00:00,50.1,47.3,29.81,NW,322,0.0,0.0,90,0.08,,,0.09,VWS V14.01,2014-01-14 06:00:00,
2014-01-14 01:03:00,52.8,43.3,29.84,NW,310,0.0,0.0,70,0.00,,,0.00,VWS V14.01,2014-01-14 06:03:00,
2014-01-14 01:08:00,52.8,43.3,29.84,NW,310,0.0,0.0,70,0.00,,,0.00,VWS V14.01,2014-01-14 06:08:00,
2014-01-14 01:13:00,52.8,43.7,29.84,NW,310,0.0,0.0,71,0.00,,,0.00,VWS V14.01,2014-01-14 06:13:00,
2014-01-14 01:18:00,52.8,44.0,29.82,NW,310,0.0,0.0,72,0.00,,,0.00,VWS V14.01,2014-01-14 06:18:00,
2014-01-14 01:23:00,52.6,44.2,29.82,NW,310,0.0,0.0,73,0.00,,,0.00,VWS V14.01,2014-01-14 06:23:00,
2014-01-14 01:28:00,52.6,44.9,29.82,NW,310,0.0,0.0,75,0.01,,,0.01,VWS V14.01,2014-01-14 06:28:00,
2014-01-14 01:30:00,50.4,48.2,29.80,NW,322,0.0,0.0,92,0.07,,,0.09,VWS V14.01,2014-01-14 06:30:00,
2014-01-14 01:33:00,52.3,45.0,29.81,NW,310,0.0,0.0,76,0.01,,,0.01,VWS V14.01,2014-01-14 06:33:00,
2014-01-14 01:38:00,52.2,45.6,29.81,NW,310,0.0,0.0,78,0.01,,,0.01,VWS V14.01,2014-01-14 06:38:00,
2014-01-14 01:43:00,51.9,45.6,29.81,NW,310,0.0,0.0,79,0.01,,,0.01,VWS V14.01,2014-01-14 06:43:00,
2014-01-14 01:48:00,51.6,46.0,29.81,NW,310,0.0,0.0,81,0.02,,,0.02,VWS V14.01,2014-01-14 06:48:00,
2014-01-14 01:53:00,51.3,46.0,29.81,NW,310,0.0,0.0,82,0.02,,,0.02,VWS V14.01,2014-01-14 06:53:00,
2014-01-14 01:58:00,51.0,45.7,29.81,NW,310,0.0,0.0,82,0.02,,,0.02,VWS V14.01,2014-01-14 06:58:00,
2014-01-14 02:00:00,50.4,48.2,29.78,NW,322,0.0,0.0,92,0.03,,,0.09,VWS V14.01,2014-01-14 07:00:00,
2014-01-14 02:03:00,50.8,46.2,29.83,NW,310,0.0,0.0,84,0.03,,,0.03,VWS V14.01,2014-01-14 07:03:00,
2014-01-14 02:08:00,50.5,46.2,29.83,NW,310,0.0,0.0,85,0.03,,,0.03,VWS V14.01,2014-01-14 07:08:00,
2014-01-14 02:13:00,50.4,46.1,29.83,NW,310,0.0,0.0,85,0.03,,,0.03,VWS V14.01,2014-01-14 07:13:00,
2014-01-14 02:18:00,50.4,46.4,29.81,NW,310,0.0,0.0,86,0.04,,,0.04,VWS V14.01,2014-01-14 07:18:00,
2014-01-14 02:23:00,50.2,46.2,29.81,NW,310,0.0,0.0,86,0.05,,,0.05,VWS V14.01,2014-01-14 07:23:00,
2014-01-14 02:28:00,50.1,46.4,29.81,NW,310,0.0,0.0,87,0.06,,,0.06,VWS V14.01,2014-01-14 07:28:00,
2014-01-14 02:30:00,50.2,48.0,29.78,NW,323,0.0,0.0,92,0.00,,,0.09,VWS V14.01,2014-01-14 07:30:00,
2014-01-14 02:33:00,50.1,46.7,29.82,NW,310,0.0,0.0,88,0.06,,,0.07,VWS V14.01,2014-01-14 07:33:00,
2014-01-14 02:38:00,49.9,46.5,29.82,NW,310,0.0,0.0,88,0.06,,,0.07,VWS V14.01,2014-01-14 07:38:00,
2014-01-14 02:43:00,49.9,46.8,29.82,NW,310,0.0,0.0,89,0.07,,,0.08,VWS V14.01,2014-01-14 07:43:00,
2014-01-14 02:48:00,49.9,46.8,29.82,NW,311,0.0,0.0,89,0.08,,,0.09,VWS V14.01,2014-01-14 07:48:00,
2014-01-14 02:53:00,49.9,47.1,29.82,NW,323,0.0,0.0,90,0.08,,,0.09,VWS V14.01,2014-01-14 07:53:00,
2014-01-14 02:58:00,50.1,47.3,29.82,NW,322,0.0,0.0,90,0.08,,,0.09,VWS V14.01,2014-01-14 07:58:00,
2014-01-14 03:00:00,50.2,48.3,29.78,NW,322,0.0,0.0,93,0.00,,,0.09,VWS V14.01,2014-01-14 08:00:00,
2014-01-14 03:03:00,50.1,47.6,29.81,NW,322,0.0,0.0,91,0.07,,,0.09,VWS V14.01,2014-01-14 08:03:00,
2014-01-14 03:08:00,50.2,47.7,29.81,NW,322,0.0,0.0,91,0.07,,,0.09,VWS V14.01,2014-01-14 08:08:00,
2014-01-14 03:13:00,50.2,47.7,29.81,NW,322,0.0,0.0,91,0.07,,,0.09,VWS V14.01,2014-01-14 08:13:00,
2014-01-14 03:18:00,50.4,47.9,29.82,NW,322,0.0,0.0,91,0.07,,,0.09,VWS V14.01,2014-01-14 08:18:00,
2014-01-14 03:23:00,50.4,48.2,29.82,NW,323,0.0,0.0,92,0.07,,,0.09,VWS V14.01,2014-01-14 08:23:00,
2014-01-14 03:28:00,50.4,48.2,29.82,NW,322,0.0,0.0,92,0.07,,,0.09,VWS V14.01,2014-01-14 08:28:00,
2014-01-14 03:30:00,49.9,48.0,29.77,WNW,298,0.0,0.0,93,0.01,,,0.10,VWS V14.01,2014-01-14 08:30:00,
2014-01-14 03:33:00,50.4,48.2,29.80,NW,322,0.0,0.0,92,0.03,,,0.09,VWS V14.01,2014-01-14 08:33:00,
2014-01-14 03:38:00,50.4,48.2,29.80,NW,322,0.0,0.0,92,0.03,,,0.09,VWS V14.01,2014-01-14 08:38:00,
2014-01-14 03:43:00,50.4,48.2,29.80,NW,322,0.0,0.0,92,0.03,,,0.09,VWS V14.01,2014-01-14 08:43:00,
2014-01-14 03:48:00,50.4,48.2,29.79,NW,323,0.0,0.0,92,0.03,,,0.09,VWS V14.01,2014-01-14 08:48:00,
2014-01-14 03:53:00,50.4,48.2,29.79,NW,322,0.0,0.0,92,0.03,,,0.09,VWS V14.01,2014-01-14 08:53:00,
2014-01-14 03:58:00,50.4,48.2,29.79,NW,322,0.0,0.0,92,0.03,,,0.09,VWS V14.01,2014-01-14 08:58:00,
2014-01-14 04:00:00,49.8,47.9,29.75,WNW,298,0.0,0.0,93,0.01,,,0.10,VWS V14.01,2014-01-14 09:00:00,
2014-01-14 04:03:00,50.4,48.2,29.78,NW,322,0.0,0.0,92,0.00,,,0.09,VWS V14.01,2014-01-14 09:03:00,
2014-01-14 04:08:00,50.2,48.0,29.78,NW,322,0.0,0.0,92,0.00,,,0.09,VWS V14.01,2014-01-14 09:08:00,
2014-01-14 04:13:00,50.2,48.0,29.78,NW,322,0.0,0.0,92,0.00,,,0.09,VWS V14.01,2014-01-14 09:13:00,
2014-01-14 04:18:00,50.2,48.0,29.79,NW,322,0.0,0.0,92,0.00,,,0.09,VWS V14.01,2014-01-14 09:18:00,
2014-01-14 04:23:00,50.2,48.0,29.79,NW,322,0.0,0.0,92,0.00,,,0.09,VWS V14.01,2014-01-14 09:23:00,
2014-01-14 04:28:00,50.2,48.0,29.79,NW,322,0.0,0.0,92,0.00,,,0.09,VWS V14.01,2014-01-14 09:28:00,
2014-01-14 04:30:00,49.8,48.2,29.75,WNW,298,0.0,0.0,94,0.01,,,0.10,VWS V14.01,2014-01-14 09:30:00,
2014-01-14 04:33:00,50.1,47.9,29.78,NW,323,0.0,0.0,92,0.00,,,0.09,VWS V14.01,2014-01-14 09:33:00,
2014-01-14 04:38:00,50.1,47.9,29.78,NW,322,0.0,0.0,92,0.00,,,0.09,VWS V14.01,2014-01-14 09:38:00,
2014-01-14 04:43:00,50.2,48.0,29.78,NW,322,0.0,0.0,92,0.00,,,0.09,VWS V14.01,2014-01-14 09:43:00,
2014-01-14 04:48:00,50.2,48.3,29.78,NW,322,0.0,0.0,93,0.00,,,0.09,VWS V14.01,2014-01-14 09:48:00,
2014-01-14 04:53:00,50.2,48.3,29.78,NW,322,0.0,0.0,93,0.00,,,0.09,VWS V14.01,2014-01-14 09:53:00,
2014-01-14 04:58:00,50.2,48.3,29.78,NW,322,0.0,0.0,93,0.00,,,0.09,VWS V14.01,2014-01-14 09:58:00,
2014-01-14 05:00:00,49.8,48.2,29.74,WNW,298,0.0,0.0,94,0.00,,,0.10,VWS V14.01,2014-01-14 10:00:00,
2014-01-14 05:03:00,50.2,48.3,29.78,NW,322,0.0,0.0,93,0.01,,,0.10,VWS V14.01,2014-01-14 10:03:00,
2014-01-14 05:08:00,50.2,48.3,29.78,NW,322,0.0,0.0,93,0.01,,,0.10,VWS V14.01,2014-01-14 10:08:00,
2014-01-14 05:13:00,50.2,48.3,29.78,NW,322,0.0,0.0,93,0.01,,,0.10,VWS V14.01,2014-01-14 10:13:00,
2014-01-14 05:18:00,50.1,48.2,29.78,NW,319,0.0,0.0,93,0.01,,,0.10,VWS V14.01,2014-01-14 10:18:00,
2014-01-14 05:23:00,50.1,48.2,29.78,WNW,298,0.0,0.0,93,0.01,,,0.10,VWS V14.01,2014-01-14 10:23:00,
2014-01-14 05:28:00,49.9,48.0,29.78,WNW,298,0.0,0.0,93,0.01,,,0.10,VWS V14.01,2014-01-14 10:28:00,
2014-01-14 05:30:00,49.8,48.2,29.72,WNW,298,0.0,0.0,94,0.00,,,0.10,VWS V14.01,2014-01-14 10:30:00,
2014-01-14 05:33:00,49.9,48.0,29.77,WNW,298,0.0,0.0,93,0.01,,,0.10,VWS V14.01,2014-01-14 10:33:00,
2014-01-14 05:38:00,49.9,48.0,29.77,WNW,298,0.0,0.0,93,0.01,,,0.10,VWS V14.01,2014-01-14 10:38:00,
2014-01-14 05:43:00,49.9,48.0,29.77,WNW,298,0.0,0.0,93,0.01,,,0.10,VWS V14.01,2014-01-14 10:43:00,
2014-01-14 05:48:00,49.8,47.9,29.75,WNW,298,0.0,0.0,93,0.01,,,0.10,VWS V14.01,2014-01-14 10:48:00,
2014-01-14 05:53:00,49.8,47.9,29.75,WNW,298,0.0,0.0,93,0.01,,,0.10,VWS V14.01,2014-01-14 10:53:00,
2014-01-14 05:58:00,49.8,47.9,29.75,WNW,298,0.0,0.0,93,0.01,,,0.10,VWS V14.01,2014-01-14 10:58:00,
2014-01-14 06:00:00,49.9,48.2,29.74,WNW,298,0.0,0.0,94,0.01,,,0.11,VWS V14.01,2014-01-14 11:00:00,
2014-01-14 06:03:00,49.8,47.9,29.75,WNW,298,0.0,0.0,93,0.01,,,0.10,VWS V14.01,2014-01-14 11:03:00,
2014-01-14 06:08:00,49.8,47.9,29.75,WNW,298,0.0,0.0,93,0.01,,,0.10,VWS V14.01,2014-01-14 11:08:00,
2014-01-14 06:13:00,49.8,47.9,29.75,WNW,298,0.0,0.0,93,0.01,,,0.10,VWS V14.01,2014-01-14 11:13:00,
2014-01-14 06:18:00,49.8,47.9,29.75,WNW,298,0.0,0.0,93,0.01,,,0.10,VWS V14.01,2014-01-14 11:18:00,
2014-01-14 06:23:00,49.8,48.2,29.75,WNW,298,0.0,0.0,94,0.01,,,0.10,VWS V14.01,2014-01-14 11:23:00,
2014-01-14 06:28:00,49.8,48.2,29.75,WNW,298,0.0,0.0,94,0.01,,,0.10,VWS V14.01,2014-01-14 11:28:00,
2014-01-14 06:30:00,50.1,48.7,29.75,WNW,298,0.0,0.0,95,0.01,,,0.11,VWS V14.01,2014-01-14 11:30:00,
2014-01-14 06:33:00,49.8,48.2,29.75,WNW,298,0.0,0.0,94,0.00,,,0.10,VWS V14.01,2014-01-14 11:33:00,
2014-01-14 06:38:00,49.8,48.2,29.75,WNW,298,0.0,0.0,94,0.00,,,0.10,VWS V14.01,2014-01-14 11:38:00,
2014-01-14 06:43:00,49.8,48.2,29.75,WNW,298,0.0,0.0,94,0.00,,,0.10,VWS V14.01,2014-01-14 11:43:00,
2014-01-14 06:48:00,49.8,48.2,29.74,WNW,298,0.0,0.0,94,0.00,,,0.10,VWS V14.01,2014-01-14 11:48:00,
2014-01-14 06:53:00,49.8,48.2,29.74,WNW,298,0.0,0.0,94,0.00,,,0.10,VWS V14.01,2014-01-14 11:53:00,
2014-01-14 06:58:00,49.8,48.2,29.74,WNW,298,0.0,0.0,94,0.00,,,0.10,VWS V14.01,2014-01-14 11:58:00,
2014-01-14 07:00:00,50.2,48.8,29.74,WNW,298,0.0,0.0,95,0.01,,,0.11,VWS V14.01,2014-01-14 12:00:00,
2014-01-14 07:03:00,49.8,48.2,29.74,WNW,298,0.0,0.0,94,0.00,,,0.10,VWS V14.01,2014-01-14 12:03:00,
2014-01-14 07:08:00,49.8,48.2,29.74,WNW,298,0.0,0.0,94,0.00,,,0.10,VWS V14.01,2014-01-14 12:08:00,
2014-01-14 07:13:00,49.8,48.2,29.74,WNW,298,0.0,0.0,94,0.00,,,0.10,VWS V14.01,2014-01-14 12:13:00,
2014-01-14 07:18:00,49.8,48.2,29.73,WNW,298,0.0,0.0,94,0.00,,,0.10,VWS V14.01,2014-01-14 12:18:00,
2014-01-14 07:23:00,49.8,48.2,29.73,WNW,298,0.0,0.0,94,0.00,,,0.10,VWS V14.01,2014-01-14 12:23:00,
2014-01-14 07:28:00,49.8,48.2,29.73,WNW,298,0.0,0.0,94,0.00,,,0.10,VWS V14.01,2014-01-14 12:28:00,
2014-01-14 07:30:00,50.5,49.1,29.73,WNW,298,0.0,0.0,95,0.00,,,0.11,VWS V14.01,2014-01-14 12:30:00,
2014-01-14 07:33:00,49.8,48.2,29.72,WNW,298,0.0,0.0,94,0.00,,,0.10,VWS V14.01,2014-01-14 12:33:00,
2014-01-14 07:38:00,49.8,48.2,29.72,WNW,298,0.0,0.0,94,0.00,,,0.10,VWS V14.01,2014-01-14 12:38:00,
2014-01-14 07:43:00,49.8,48.2,29.72,WNW,298,0.0,0.0,94,0.00,,,0.10,VWS V14.01,2014-01-14 12:43:00,
2014-01-14 07:48:00,49.8,48.2,29.74,WNW,298,0.0,0.0,94,0.00,,,0.10,VWS V14.01,2014-01-14 12:48:00,
2014-01-14 07:53:00,49.8,48.2,29.74,WNW,298,0.0,0.0,94,0.00,,,0.10,VWS V14.01,2014-01-14 12:53:00,
2014-01-14 07:58:00,49.8,48.2,29.74,WNW,298,0.0,0.0,94,0.01,,,0.11,VWS V14.01,2014-01-14 12:58:00,
2014-01-14 08:00:00,50.8,49.4,29.73,WNW,298,0.0,0.0,95,0.00,,,0.11,VWS V14.01,2014-01-14 13:00:00,
2014-01-14 08:03:00,49.9,48.2,29.74,WNW,298,0.0,0.0,94,0.01,,,0.11,VWS V14.01,2014-01-14 13:03:00,
2014-01-14 08:08:00,49.9,48.2,29.74,WNW,298,0.0,0.0,94,0.01,,,0.11,VWS V14.01,2014-01-14 13:08:00,
2014-01-14 08:13:00,49.9,48.2,29.74,WNW,298,0.0,0.0,94,0.01,,,0.11,VWS V14.01,2014-01-14 13:13:00,
2014-01-14 08:18:00,50.1,48.7,29.74,WNW,298,0.0,0.0,95,0.01,,,0.11,VWS V14.01,2014-01-14 13:18:00,
2014-01-14 08:23:00,50.1,48.7,29.74,WNW,298,0.0,0.0,95,0.01,,,0.11,VWS V14.01,2014-01-14 13:23:00,
2014-01-14 08:28:00,50.1,48.7,29.74,WNW,298,0.0,0.0,95,0.01,,,0.11,VWS V14.01,2014-01-14 13:28:00,
2014-01-14 08:30:00,51.3,49.9,29.72,WNW,298,0.0,0.0,95,0.00,,,0.11,VWS V14.01,2014-01-14 13:30:00,
2014-01-14 08:33:00,50.2,48.8,29.75,WNW,298,0.0,0.0,95,0.01,,,0.11,VWS V14.01,2014-01-14 13:33:00,
2014-01-14 08:38:00,50.2,48.8,29.75,WNW,298,0.0,0.0,95,0.01,,,0.11,VWS V14.01,2014-01-14 13:38:00,
2014-01-14 08:43:00,50.2,48.8,29.75,WNW,298,0.0,0.0,95,0.01,,,0.11,VWS V14.01,2014-01-14 13:43:00,
2014-01-14 08:48:00,50.2,48.8,29.74,WNW,298,0.0,0.0,95,0.01,,,0.11,VWS V14.01,2014-01-14 13:48:00,
2014-01-14 08:53:00,50.2,48.8,29.74,WNW,298,0.0,0.0,95,0.01,,,0.11,VWS V14.01,2014-01-14 13:53:00,
2014-01-14 08:58:00,50.2,48.8,29.74,WNW,298,0.0,0.0,95,0.01,,,0.11,VWS V14.01,2014-01-14 13:58:00,
2014-01-14 09:00:00,51.6,50.2,29.71,WNW,298,0.0,0.0,95,0.00,,,0.11,VWS V14.01,2014-01-14 14:00:00,
2014-01-14 09:03:00,50.2,48.8,29.74,WNW,298,0.0,0.0,95,0.00,,,0.11,VWS V14.01,2014-01-14 14:03:00,
2014-01-14 09:08:00,50.4,49.0,29.74,WNW,298,0.0,0.0,95,0.00,,,0.11,VWS V14.01,2014-01-14 14:08:00,
2014-01-14 09:13:00,50.4,49.0,29.74,WNW,298,0.0,0.0,95,0.00,,,0.11,VWS V14.01,2014-01-14 14:13:00,
2014-01-14 09:18:00,50.4,49.0,29.73,WNW,298,0.0,0.0,95,0.00,,,0.11,VWS V14.01,2014-01-14 14:18:00,
2014-01-14 09:23:00,50.4,49.0,29.73,WNW,298,0.0,0.0,95,0.00,,,0.11,VWS V14.01,2014-01-14 14:23:00,
2014-01-14 09:28:00,50.5,49.1,29.73,WNW,298,0.0,0.0,95,0.00,,,0.11,VWS V14.01,2014-01-14 14:28:00,
2014-01-14 09:30:00,51.7,50.3,29.70,WNW,298,0.0,0.0,95,0.01,,,0.12,VWS V14.01,2014-01-14 14:30:00,
2014-01-14 09:33:00,50.5,49.1,29.73,WNW,298,0.0,0.0,95,0.00,,,0.11,VWS V14.01,2014-01-14 14:33:00,
2014-01-14 09:38:00,50.7,49.3,29.73,WNW,298,0.0,0.0,95,0.00,,,0.11,VWS V14.01,2014-01-14 14:38:00,
2014-01-14 09:43:00,50.7,49.3,29.73,WNW,298,0.0,0.0,95,0.00,,,0.11,VWS V14.01,2014-01-14 14:43:00,
2014-01-14 09:48:00,50.8,49.4,29.73,WNW,298,0.0,0.0,95,0.00,,,0.11,VWS V14.01,2014-01-14 14:48:00,
2014-01-14 09:53:00,50.8,49.4,29.73,WNW,298,0.0,0.0,95,0.00,,,0.11,VWS V14.01,2014-01-14 14:53:00,
2014-01-14 09:58:00,50.8,49.4,29.73,WNW,298,0.0,0.0,95,0.00,,,0.11,VWS V14.01,2014-01-14 14:58:00,
2014-01-14 10:00:00,51.3,49.9,29.71,ENE,69,4.0,6.0,95,0.12,,,0.23,VWS V14.01,2014-01-14 15:00:00,
2014-01-14 10:03:00,50.8,49.4,29.73,WNW,298,0.0,0.0,95,0.00,,,0.11,VWS V14.01,2014-01-14 15:03:00,
2014-01-14 10:08:00,51.0,49.6,29.73,WNW,298,0.0,0.0,95,0.00,,,0.11,VWS V14.01,2014-01-14 15:08:00,
2014-01-14 10:13:00,51.0,49.6,29.73,WNW,298,0.0,0.0,95,0.00,,,0.11,VWS V14.01,2014-01-14 15:13:00,
2014-01-14 10:18:00,51.1,49.7,29.72,WNW,298,0.0,0.0,95,0.00,,,0.11,VWS V14.01,2014-01-14 15:18:00,
2014-01-14 10:23:00,51.1,49.7,29.72,WNW,298,0.0,0.0,95,0.00,,,0.11,VWS V14.01,2014-01-14 15:23:00,
2014-01-14 10:28:00,51.1,49.7,29.72,WNW,298,0.0,0.0,95,0.00,,,0.11,VWS V14.01,2014-01-14 15:28:00,
2014-01-14 10:30:00,50.4,49.0,29.72,NE,50,0.0,7.0,95,0.15,,,0.26,VWS V14.01,2014-01-14 15:30:00,
2014-01-14 10:33:00,51.3,49.9,29.72,WNW,298,0.0,0.0,95,0.00,,,0.11,VWS V14.01,2014-01-14 15:33:00,
2014-01-14 10:38:00,51.3,49.9,29.72,WNW,298,0.0,0.0,95,0.00,,,0.11,VWS V14.01,2014-01-14 15:38:00,
2014-01-14 10:43:00,51.3,49.9,29.72,WNW,298,0.0,0.0,95,0.00,,,0.11,VWS V14.01,2014-01-14 15:43:00,
2014-01-14 10:48:00,51.4,50.0,29.71,WNW,298,0.0,0.0,95,0.00,,,0.11,VWS V14.01,2014-01-14 15:48:00,
2014-01-14 10:53:00,51.4,50.0,29.71,WNW,298,0.0,0.0,95,0.00,,,0.11,VWS V14.01,2014-01-14 15:53:00,
2014-01-14 10:58:00,51.6,50.2,29.71,WNW,298,0.0,0.0,95,0.00,,,0.11,VWS V14.01,2014-01-14 15:58:00,
2014-01-14 11:00:00,49.8,48.4,29.73,East,85,5.0,10.0,95,0.16,,,0.28,VWS V14.01,2014-01-14 16:00:00,
2014-01-14 11:03:00,51.6,50.2,29.71,WNW,298,0.0,0.0,95,0.00,,,0.11,VWS V14.01,2014-01-14 16:03:00,
2014-01-14 11:08:00,51.7,50.3,29.71,WNW,298,0.0,0.0,95,0.01,,,0.12,VWS V14.01,2014-01-14 16:08:00,
2014-01-14 11:13:00,51.7,50.3,29.71,WNW,298,0.0,0.0,95,0.01,,,0.12,VWS V14.01,2014-01-14 16:13:00,
2014-01-14 11:18:00,51.7,50.3,29.70,WNW,298,0.0,0.0,95,0.01,,,0.12,VWS V14.01,2014-01-14 16:18:00,
2014-01-14 11:23:00,51.7,50.3,29.70,WNW,298,0.0,0.0,95,0.01,,,0.12,VWS V14.01,2014-01-14 16:23:00,
2014-01-14 11:28:00,51.7,50.3,29.70,WNW,298,0.0,0.0,95,0.01,,,0.12,VWS V14.01,2014-01-14 16:28:00,
2014-01-14 11:30:00,49.2,47.5,29.72,ENE,67,0.0,13.0,94,0.07,,,0.30,VWS V14.01,2014-01-14 16:30:00,
2014-01-14 11:33:00,51.7,50.3,29.70,WNW,298,0.0,0.0,95,0.02,,,0.13,VWS V14.01,2014-01-14 16:33:00,
2014-01-14 11:38:00,51.7,50.3,29.70,WNW,298,0.0,0.0,95,0.03,,,0.14,VWS V14.01,2014-01-14 16:38:00,
2014-01-14 11:43:00,51.7,50.3,29.70,NNE,26,4.0,4.0,95,0.05,,,0.16,VWS V14.01,2014-01-14 16:43:00,
2014-01-14 11:48:00,51.7,50.3,29.72,ENE,58,2.0,6.0,95,0.08,,,0.19,VWS V14.01,2014-01-14 16:48:00,
2014-01-14 11:53:00,51.6,50.2,29.72,ENE,65,3.0,6.0,95,0.10,,,0.21,VWS V14.01,2014-01-14 16:53:00,
2014-01-14 11:58:00,51.3,49.9,29.72,ENE,67,4.0,6.0,95,0.12,,,0.23,VWS V14.01,2014-01-14 16:58:00,
2014-01-14 12:00:00,49.5,47.6,29.72,ENE,67,0.0,4.0,93,0.06,,,0.32,VWS V14.01,2014-01-14 17:00:00,
2014-01-14 12:03:00,51.0,49.6,29.71,ENE,59,2.0,6.0,95,0.13,,,0.24,VWS V14.01,2014-01-14 17:03:00,
2014-01-14 12:08:00,50.8,49.4,29.71,ENE,59,0.0,6.0,95,0.13,,,0.24,VWS V14.01,2014-01-14 17:08:00,
2014-01-14 12:13:00,50.7,49.3,29.71,ENE,64,0.0,6.0,95,0.13,,,0.24,VWS V14.01,2014-01-14 17:13:00,
2014-01-14 12:18:00,50.4,49.0,29.70,NE,43,2.0,7.0,95,0.14,,,0.25,VWS V14.01,2014-01-14 17:18:00,
2014-01-14 12:23:00,50.4,49.0,29.70,NE,45,0.0,7.0,95,0.14,,,0.25,VWS V14.01,2014-01-14 17:23:00,
2014-01-14 12:28:00,50.4,49.0,29.70,NE,46,2.0,7.0,95,0.14,,,0.25,VWS V14.01,2014-01-14 17:28:00,
2014-01-14 12:30:00,50.5,48.0,29.72,ENE,70,0.0,5.0,91,0.05,,,0.33,VWS V14.01,2014-01-14 17:30:00,
2014-01-14 12:33:00,50.2,48.8,29.72,NE,51,0.0,5.0,95,0.14,,,0.26,VWS V14.01,2014-01-14 17:33:00,
2014-01-14 12:38:00,50.2,48.8,29.72,NE,54,4.0,5.0,95,0.15,,,0.27,VWS V14.01,2014-01-14 17:38:00,
2014-01-14 12:43:00,50.2,48.8,29.72,NE,38,2.0,7.0,95,0.15,,,0.27,VWS V14.01,2014-01-14 17:43:00,
2014-01-14 12:48:00,50.1,48.7,29.72,ENE,62,4.0,7.0,95,0.15,,,0.27,VWS V14.01,2014-01-14 17:48:00,
2014-01-14 12:53:00,49.9,48.5,29.72,NE,41,2.0,7.0,95,0.16,,,0.28,VWS V14.01,2014-01-14 17:53:00,
2014-01-14 12:58:00,49.9,48.5,29.72,NE,49,0.0,7.0,95,0.16,,,0.28,VWS V14.01,2014-01-14 17:58:00,
2014-01-14 13:00:00,51.4,48.0,29.74,NE,52,0.0,6.0,88,0.03,,,0.33,VWS V14.01,2014-01-14 18:00:00,
2014-01-14 13:03:00,49.8,48.2,29.73,ENE,57,10.0,13.0,94,0.05,,,0.28,VWS V14.01,2014-01-14 18:03:00,
2014-01-14 13:08:00,49.5,47.8,29.73,NE,51,4.0,13.0,94,0.06,,,0.29,VWS V14.01,2014-01-14 18:08:00,
2014-01-14 13:13:00,49.4,47.8,29.73,ENE,75,2.0,13.0,94,0.06,,,0.29,VWS V14.01,2014-01-14 18:13:00,
2014-01-14 13:18:00,49.4,47.8,29.73,ENE,74,3.0,13.0,94,0.07,,,0.30,VWS V14.01,2014-01-14 18:18:00,
2014-01-14 13:23:00,49.2,47.5,29.73,ENE,59,10.0,13.0,94,0.07,,,0.30,VWS V14.01,2014-01-14 18:23:00,
2014-01-14 13:28:00,49.2,47.5,29.73,ENE,67,0.0,13.0,94,0.07,,,0.30,VWS V14.01,2014-01-14 18:28:00,
2014-01-14 13:30:00,53.1,46.8,29.75,NE,51,0.0,5.0,79,0.01,,,0.33,VWS V14.01,2014-01-14 18:30:00,
2014-01-14 13:33:00,49.2,47.5,29.72,ENE,67,1.0,4.0,94,0.04,,,0.30,VWS V14.01,2014-01-14 18:33:00,
2014-01-14 13:38:00,49.4,47.8,29.72,ENE,67,1.0,4.0,94,0.05,,,0.31,VWS V14.01,2014-01-14 18:38:00,
2014-01-14 13:43:00,49.4,47.8,29.72,ENE,67,0.0,4.0,94,0.05,,,0.31,VWS V14.01,2014-01-14 18:43:00,
2014-01-14 13:48:00,49.5,47.6,29.74,ENE,67,0.0,4.0,93,0.05,,,0.31,VWS V14.01,2014-01-14 18:48:00,
2014-01-14 13:53:00,49.4,47.5,29.74,ENE,67,0.0,4.0,93,0.05,,,0.31,VWS V14.01,2014-01-14 18:53:00,
2014-01-14 13:58:00,49.5,47.6,29.74,ENE,67,1.0,4.0,93,0.06,,,0.32,VWS V14.01,2014-01-14 18:58:00,
2014-01-14 14:00:00,53.9,45.8,29.78,ENE,72,0.0,10.0,74,0.00,,,0.33,VWS V14.01,2014-01-14 19:00:00,
2014-01-14 14:03:00,49.6,47.7,29.72,ENE,70,0.0,5.0,93,0.04,,,0.32,VWS V14.01,2014-01-14 19:03:00,
2014-01-14 14:08:00,50.1,48.2,29.72,ENE,70,0.0,5.0,93,0.05,,,0.33,VWS V14.01,2014-01-14 19:08:00,
2014-01-14 14:13:00,50.2,48.3,29.72,ENE,70,0.0,5.0,93,0.05,,,0.33,VWS V14.01,2014-01-14 19:13:00,
2014-01-14 14:18:00,50.2,48.0,29.73,ENE,70,2.0,5.0,92,0.05,,,0.33,VWS V14.01,2014-01-14 19:18:00,
2014-01-14 14:23:00,50.5,48.3,29.73,ENE,70,1.0,5.0,92,0.05,,,0.33,VWS V14.01,2014-01-14 19:23:00,
2014-01-14 14:28:00,50.5,48.3,29.73,ENE,70,0.0,5.0,92,0.05,,,0.33,VWS V14.01,2014-01-14 19:28:00,
2014-01-14 14:30:00,54.1,45.3,29.80,ENE,67,0.0,5.0,72,0.00,,,0.33,VWS V14.01,2014-01-14 19:30:00,
2014-01-14 14:33:00,50.7,48.5,29.72,ENE,70,0.0,0.0,92,0.03,,,0.33,VWS V14.01,2014-01-14 19:33:00,
2014-01-14 14:38:00,50.8,48.3,29.72,NE,52,2.0,6.0,91,0.03,,,0.33,VWS V14.01,2014-01-14 19:38:00,
2014-01-14 14:43:00,50.8,48.0,29.72,NE,53,2.0,6.0,90,0.03,,,0.33,VWS V14.01,2014-01-14 19:43:00,
2014-01-14 14:48:00,51.3,48.5,29.74,NE,51,0.0,6.0,90,0.03,,,0.33,VWS V14.01,2014-01-14 19:48:00,
2014-01-14 14:53:00,51.4,48.3,29.74,NE,51,0.0,6.0,89,0.03,,,0.33,VWS V14.01,2014-01-14 19:53:00,
2014-01-14 14:58:00,51.4,48.3,29.74,NE,52,0.0,6.0,89,0.03,,,0.33,VWS V14.01,2014-01-14 19:58:00,
2014-01-14 15:00:00,53.5,45.1,29.80,ENE,66,0.0,1.0,73,0.00,,,0.33,VWS V14.01,2014-01-14 20:00:00,
2014-01-14 15:03:00,51.6,48.2,29.74,NE,52,0.0,0.0,88,0.01,,,0.33,VWS V14.01,2014-01-14 20:03:00,
2014-01-14 15:08:00,52.0,48.0,29.74,NE,52,0.0,3.0,86,0.01,,,0.33,VWS V14.01,2014-01-14 20:08:00,
2014-01-14 15:13:00,52.3,48.2,29.74,NE,52,0.0,3.0,86,0.01,,,0.33,VWS V14.01,2014-01-14 20:13:00,
2014-01-14 15:18:00,52.6,47.6,29.75,NE,52,2.0,5.0,83,0.01,,,0.33,VWS V14.01,2014-01-14 20:18:00,
2014-01-14 15:23:00,52.8,47.5,29.75,NE,52,0.0,5.0,82,0.01,,,0.33,VWS V14.01,2014-01-14 20:23:00,
2014-01-14 15:28:00,52.9,46.9,29.75,NE,51,0.0,5.0,80,0.01,,,0.33,VWS V14.01,2014-01-14 20:28:00,
2014-01-14 15:30:00,51.7,44.4,29.82,ENE,66,0.0,0.0,76,0.00,,,0.33,VWS V14.01,2014-01-14 20:30:00,
2014-01-14 15:33:00,53.2,46.9,29.75,NE,51,0.0,0.0,79,0.00,,,0.33,VWS V14.01,2014-01-14 20:33:00,
2014-01-14 15:38:00,53.5,46.5,29.75,North,5,0.0,6.0,77,0.00,,,0.33,VWS V14.01,2014-01-14 20:38:00,
2014-01-14 15:43:00,53.6,46.2,29.75,NE,39,0.0,6.0,76,0.00,,,0.33,VWS V14.01,2014-01-14 20:43:00,
2014-01-14 15:48:00,53.8,46.4,29.77,NE,40,0.0,6.0,76,0.00,,,0.33,VWS V14.01,2014-01-14 20:48:00,
2014-01-14 15:53:00,53.8,46.1,29.77,NE,41,0.0,6.0,75,0.00,,,0.33,VWS V14.01,2014-01-14 20:53:00,
2014-01-14 15:58:00,53.9,45.8,29.77,NNE,30,1.0,6.0,74,0.00,,,0.33,VWS V14.01,2014-01-14 20:58:00,
2014-01-14 16:00:00,49.4,44.1,29.82,ENE,66,0.0,0.0,82,0.00,,,0.33,VWS V14.01,2014-01-14 21:00:00,
2014-01-14 16:03:00,53.9,46.2,29.78,ENE,71,0.0,5.0,75,0.00,,,0.33,VWS V14.01,2014-01-14 21:03:00,
2014-01-14 16:08:00,54.1,46.0,29.78,ENE,70,0.0,5.0,74,0.00,,,0.33,VWS V14.01,2014-01-14 21:08:00,
2014-01-14 16:13:00,54.1,46.0,29.78,ENE,69,0.0,5.0,74,0.00,,,0.33,VWS V14.01,2014-01-14 21:13:00,
2014-01-14 16:18:00,54.1,45.7,29.79,ENE,67,0.0,5.0,73,0.00,,,0.33,VWS V14.01,2014-01-14 21:18:00,
2014-01-14 16:23:00,54.1,45.7,29.79,ENE,67,0.0,5.0,73,0.00,,,0.33,VWS V14.01,2014-01-14 21:23:00,
2014-01-14 16:28:00,54.1,45.3,29.79,ENE,67,0.0,5.0,72,0.00,,,0.33,VWS V14.01,2014-01-14 21:28:00,
2014-01-14 16:30:00,47.3,43.0,29.83,ENE,66,0.0,0.0,85,0.00,,,0.33,VWS V14.01,2014-01-14 21:30:00,
2014-01-14 16:33:00,53.9,44.7,29.80,ENE,66,0.0,1.0,71,0.00,,,0.33,VWS V14.01,2014-01-14 21:33:00,
2014-01-14 16:38:00,53.9,45.1,29.80,ENE,66,0.0,1.0,72,0.00,,,0.33,VWS V14.01,2014-01-14 21:38:00,
2014-01-14 16:43:00,53.9,45.1,29.80,ENE,66,0.0,1.0,72,0.00,,,0.33,VWS V14.01,2014-01-14 21:43:00,
2014-01-14 16:48:00,53.9,45.1,29.80,ENE,66,0.0,1.0,72,0.00,,,0.33,VWS V14.01,2014-01-14 21:48:00,
2014-01-14 16:53:00,53.8,45.0,29.80,ENE,66,0.0,1.0,72,0.00,,,0.33,VWS V14.01,2014-01-14 21:53:00,
2014-01-14 16:58:00,53.5,44.7,29.80,ENE,66,0.0,1.0,72,0.00,,,0.33,VWS V14.01,2014-01-14 21:58:00,
2014-01-14 17:00:00,45.7,42.1,29.85,ENE,66,0.0,0.0,87,0.00,,,0.33,VWS V14.01,2014-01-14 22:00:00,
2014-01-14 17:03:00,53.2,44.8,29.80,ENE,66,0.0,0.0,73,0.00,,,0.33,VWS V14.01,2014-01-14 22:03:00,
2014-01-14 17:08:00,53.1,45.0,29.80,ENE,66,0.0,0.0,74,0.00,,,0.33,VWS V14.01,2014-01-14 22:08:00,
2014-01-14 17:13:00,52.8,45.1,29.80,ENE,66,0.0,0.0,75,0.00,,,0.33,VWS V14.01,2014-01-14 22:13:00,
2014-01-14 17:18:00,52.6,44.9,29.82,ENE,66,0.0,0.0,75,0.00,,,0.33,VWS V14.01,2014-01-14 22:18:00,
2014-01-14 17:23:00,52.3,44.6,29.82,ENE,66,0.0,0.0,75,0.00,,,0.33,VWS V14.01,2014-01-14 22:23:00,
2014-01-14 17:28:00,51.9,44.6,29.82,ENE,66,0.0,0.0,76,0.00,,,0.33,VWS V14.01,2014-01-14 22:28:00,
2014-01-14 17:30:00,44.2,41.2,29.86,ENE,66,0.0,0.0,89,0.00,,,0.33,VWS V14.01,2014-01-14 22:30:00,
2014-01-14 17:33:00,51.6,44.6,29.82,ENE,66,0.0,0.0,77,0.00,,,0.33,VWS V14.01,2014-01-14 22:33:00,
2014-01-14 17:38:00,51.1,43.8,29.82,ENE,66,0.0,0.0,76,0.00,,,0.33,VWS V14.01,2014-01-14 22:38:00,
2014-01-14 17:43:00,50.8,44.2,29.82,ENE,66,0.0,0.0,78,0.00,,,0.33,VWS V14.01,2014-01-14 22:43:00,
2014-01-14 17:48:00,50.4,44.5,29.82,ENE,66,0.0,0.0,80,0.00,,,0.33,VWS V14.01,2014-01-14 22:48:00,
2014-01-14 17:53:00,49.9,44.3,29.82,ENE,66,0.0,0.0,81,0.00,,,0.33,VWS V14.01,2014-01-14 22:53:00,
2014-01-14 17:58:00,49.5,43.9,29.82,ENE,66,0.0,0.0,81,0.00,,,0.33,VWS V14.01,2014-01-14 22:58:00,
2014-01-14 18:00:00,43.2,40.5,29.87,ENE,66,0.0,0.0,90,0.00,,,0.33,VWS V14.01,2014-01-14 23:00:00,
2014-01-14 18:03:00,49.1,43.8,29.82,ENE,66,0.0,0.0,82,0.00,,,0.33,VWS V14.01,2014-01-14 23:03:00,
2014-01-14 18:08:00,48.8,43.9,29.82,ENE,66,0.0,0.0,83,0.00,,,0.33,VWS V14.01,2014-01-14 23:08:00,
2014-01-14 18:13:00,48.3,43.4,29.82,ENE,66,0.0,0.0,83,0.00,,,0.33,VWS V14.01,2014-01-14 23:13:00,
2014-01-14 18:18:00,48.0,43.4,29.83,ENE,66,0.0,0.0,84,0.00,,,0.33,VWS V14.01,2014-01-14 23:18:00,
2014-01-14 18:23:00,47.7,43.4,29.83,ENE,66,0.0,0.0,85,0.00,,,0.33,VWS V14.01,2014-01-14 23:23:00,
2014-01-14 18:28:00,47.4,43.1,29.83,ENE,66,0.0,0.0,85,0.00,,,0.33,VWS V14.01,2014-01-14 23:28:00,
2014-01-14 18:30:00,42.6,40.2,29.87,ENE,66,0.0,0.0,91,0.00,,,0.33,VWS V14.01,2014-01-14 23:30:00,
2014-01-14 18:33:00,47.1,42.8,29.83,ENE,66,0.0,0.0,85,0.00,,,0.33,VWS V14.01,2014-01-14 23:33:00,
2014-01-14 18:38:00,46.8,42.8,29.83,ENE,66,0.0,0.0,86,0.00,,,0.33,VWS V14.01,2014-01-14 23:38:00,
2014-01-14 18:43:00,46.5,42.8,29.83,ENE,66,0.0,0.0,87,0.00,,,0.33,VWS V14.01,2014-01-14 23:43:00,
2014-01-14 18:48:00,46.2,42.5,29.84,ENE,66,0.0,0.0,87,0.00,,,0.33,VWS V14.01,2014-01-14 23:48:00,
2014-01-14 18:53:00,46.1,42.5,29.84,ENE,66,0.0,0.0,87,0.00,,,0.33,VWS V14.01,2014-01-14 23:53:00,
2014-01-14 18:58:00,45.7,42.1,29.84,ENE,66,0.0,0.0,87,0.00,,,0.33,VWS V14.01,2014-01-14 23:58:00,
2014-01-14 19:00:00,41.9,39.8,29.88,ENE,66,0.0,0.0,92,0.00,,,0.33,VWS V14.01,2014-01-15 00:00:00,
2014-01-14 19:03:00,45.5,41.9,29.85,ENE,66,0.0,0.0,87,0.00,,,0.33,VWS V14.01,2014-01-15 00:03:00,
2014-01-14 19:08:00,45.2,41.9,29.85,ENE,66,0.0,0.0,88,0.00,,,0.33,VWS V14.01,2014-01-15 00:08:00,
2014-01-14 19:13:00,44.9,41.6,29.85,ENE,66,0.0,0.0,88,0.00,,,0.33,VWS V14.01,2014-01-15 00:13:00,
2014-01-14 19:18:00,44.6,41.6,29.85,ENE,66,0.0,0.0,89,0.00,,,0.33,VWS V14.01,2014-01-15 00:18:00,
2014-01-14 19:23:00,44.5,41.5,29.85,ENE,66,0.0,0.0,89,0.00,,,0.33,VWS V14.01,2014-01-15 00:23:00,
2014-01-14 19:28:00,44.2,41.2,29.85,ENE,66,0.0,0.0,89,0.00,,,0.33,VWS V14.01,2014-01-15 00:28:00,
2014-01-14 19:30:00,41.2,39.1,29.90,ENE,66,0.0,0.0,92,0.00,,,0.33,VWS V14.01,2014-01-15 00:30:00,
2014-01-14 19:33:00,44.1,41.1,29.86,ENE,66,0.0,0.0,89,0.00,,,0.33,VWS V14.01,2014-01-15 00:33:00,
2014-01-14 19:38:00,43.9,41.2,29.86,ENE,66,0.0,0.0,90,0.00,,,0.33,VWS V14.01,2014-01-15 00:38:00,
2014-01-14 19:43:00,43.8,41.1,29.86,ENE,66,0.0,0.0,90,0.00,,,0.33,VWS V14.01,2014-01-15 00:43:00,
2014-01-14 19:48:00,43.6,40.9,29.86,ENE,66,0.0,0.0,90,0.00,,,0.33,VWS V14.01,2014-01-15 00:48:00,
2014-01-14 19:53:00,43.5,40.8,29.86,ENE,66,0.0,0.0,90,0.00,,,0.33,VWS V14.01,2014-01-15 00:53:00,
2014-01-14 19:58:00,43.2,40.5,29.86,ENE,66,0.0,0.0,90,0.00,,,0.33,VWS V14.01,2014-01-15 00:58:00,
2014-01-14 20:00:00,40.8,38.9,29.90,ENE,66,0.0,0.0,93,0.00,,,0.33,VWS V14.01,2014-01-15 01:00:00,
2014-01-14 20:03:00,43.1,40.4,29.87,ENE,66,0.0,0.0,90,0.00,,,0.33,VWS V14.01,2014-01-15 01:03:00,
2014-01-14 20:08:00,42.9,40.5,29.87,ENE,66,0.0,0.0,91,0.00,,,0.33,VWS V14.01,2014-01-15 01:08:00,
2014-01-14 20:13:00,42.9,40.5,29.87,ENE,66,0.0,0.0,91,0.00,,,0.33,VWS V14.01,2014-01-15 01:13:00,
2014-01-14 20:18:00,42.9,40.5,29.86,ENE,66,0.0,0.0,91,0.00,,,0.33,VWS V14.01,2014-01-15 01:18:00,
2014-01-14 20:23:00,42.8,40.4,29.86,ENE,66,0.0,0.0,91,0.00,,,0.33,VWS V14.01,2014-01-15 01:23:00,
2014-01-14 20:28:00,42.6,40.2,29.86,ENE,66,0.0,0.0,91,0.00,,,0.33,VWS V14.01,2014-01-15 01:28:00,
2014-01-14 20:30:00,40.6,38.7,29.90,ENE,66,0.0,0.0,93,0.00,,,0.33,VWS V14.01,2014-01-15 01:30:00,
2014-01-14 20:33:00,42.5,40.1,29.87,ENE,66,0.0,0.0,91,0.00,,,0.33,VWS V14.01,2014-01-15 01:33:00,
2014-01-14 20:38:00,42.5,40.3,29.87,ENE,66,0.0,0.0,92,0.00,,,0.33,VWS V14.01,2014-01-15 01:38:00,
2014-01-14 20:43:00,42.3,40.2,29.87,ENE,66,0.0,0.0,92,0.00,,,0.33,VWS V14.01,2014-01-15 01:43:00,
2014-01-14 20:48:00,42.2,40.0,29.88,ENE,66,0.0,0.0,92,0.00,,,0.33,VWS V14.01,2014-01-15 01:48:00,
2014-01-14 20:53:00,42.1,40.0,29.88,ENE,66,0.0,0.0,92,0.00,,,0.33,VWS V14.01,2014-01-15 01:53:00,
2014-01-14 20:58:00,42.1,40.0,29.88,ENE,66,0.0,0.0,92,0.00,,,0.33,VWS V14.01,2014-01-15 01:58:00,
2014-01-14 21:00:00,39.9,38.0,29.90,ENE,66,0.0,0.0,93,0.00,,,0.33,VWS V14.01,2014-01-15 02:00:00,
2014-01-14 21:03:00,41.9,39.8,29.88,ENE,66,0.0,0.0,92,0.00,,,0.33,VWS V14.01,2014-01-15 02:03:00,
2014-01-14 21:08:00,41.8,39.7,29.88,ENE,66,0.0,0.0,92,0.00,,,0.33,VWS V14.01,2014-01-15 02:08:00,
2014-01-14 21:13:00,41.6,39.5,29.88,ENE,66,0.0,0.0,92,0.00,,,0.33,VWS V14.01,2014-01-15 02:13:00,
2014-01-14 21:18:00,41.5,39.3,29.89,ENE,66,0.0,0.0,92,0.00,,,0.33,VWS V14.01,2014-01-15 02:18:00,
2014-01-14 21:23:00,41.2,39.1,29.89,ENE,66,0.0,0.0,92,0.00,,,0.33,VWS V14.01,2014-01-15 02:23:00,
2014-01-14 21:28:00,41.2,39.1,29.89,ENE,66,0.0,0.0,92,0.00,,,0.33,VWS V14.01,2014-01-15 02:28:00,
2014-01-14 21:30:00,39.3,37.7,29.90,ENE,66,0.0,0.0,94,0.00,,,0.33,VWS V14.01,2014-01-15 02:30:00,
2014-01-14 21:33:00,41.2,39.1,29.90,ENE,66,0.0,0.0,92,0.00,,,0.33,VWS V14.01,2014-01-15 02:33:00,
2014-01-14 21:38:00,41.2,39.3,29.90,ENE,66,0.0,0.0,93,0.00,,,0.33,VWS V14.01,2014-01-15 02:38:00,
2014-01-14 21:43:00,41.1,39.2,29.90,ENE,66,0.0,0.0,93,0.00,,,0.33,VWS V14.01,2014-01-15 02:43:00,
2014-01-14 21:48:00,41.1,39.2,29.90,ENE,66,0.0,0.0,93,0.00,,,0.33,VWS V14.01,2014-01-15 02:48:00,
2014-01-14 21:53:00,40.9,39.0,29.90,ENE,66,0.0,0.0,93,0.00,,,0.33,VWS V14.01,2014-01-15 02:53:00,
2014-01-14 21:58:00,40.8,38.9,29.90,ENE,66,0.0,0.0,93,0.00,,,0.33,VWS V14.01,2014-01-15 02:58:00,
2014-01-14 22:00:00,38.9,37.3,29.89,ENE,66,0.0,0.0,94,0.00,,,0.33,VWS V14.01,2014-01-15 03:00:00,
2014-01-14 22:03:00,40.6,38.7,29.90,ENE,66,0.0,0.0,93,0.00,,,0.33,VWS V14.01,2014-01-15 03:03:00,
2014-01-14 22:08:00,40.6,38.7,29.90,ENE,66,0.0,0.0,93,0.00,,,0.33,VWS V14.01,2014-01-15 03:08:00,
2014-01-14 22:13:00,40.8,38.9,29.90,ENE,66,0.0,0.0,93,0.00,,,0.33,VWS V14.01,2014-01-15 03:13:00,
2014-01-14 22:18:00,40.8,38.9,29.90,ENE,66,0.0,0.0,93,0.00,,,0.33,VWS V14.01,2014-01-15 03:18:00,
2014-01-14 22:23:00,40.6,38.7,29.90,ENE,66,0.0,0.0,93,0.00,,,0.33,VWS V14.01,2014-01-15 03:23:00,
2014-01-14 22:28:00,40.6,38.7,29.90,ENE,66,0.0,0.0,93,0.00,,,0.33,VWS V14.01,2014-01-15 03:28:00,
2014-01-14 22:30:00,39.3,38.0,29.89,ENE,66,0.0,0.0,95,0.00,,,0.33,VWS V14.01,2014-01-15 03:30:00,
2014-01-14 22:33:00,40.5,38.6,29.90,ENE,66,0.0,0.0,93,0.00,,,0.33,VWS V14.01,2014-01-15 03:33:00,
2014-01-14 22:38:00,40.5,38.6,29.90,ENE,66,0.0,0.0,93,0.00,,,0.33,VWS V14.01,2014-01-15 03:38:00,
2014-01-14 22:43:00,40.3,38.4,29.90,ENE,66,0.0,0.0,93,0.00,,,0.33,VWS V14.01,2014-01-15 03:43:00,
2014-01-14 22:48:00,40.2,38.3,29.90,ENE,66,0.0,0.0,93,0.00,,,0.33,VWS V14.01,2014-01-15 03:48:00,
2014-01-14 22:53:00,40.1,38.2,29.90,ENE,66,0.0,0.0,93,0.00,,,0.33,VWS V14.01,2014-01-15 03:53:00,
2014-01-14 22:58:00,39.9,38.0,29.90,ENE,66,0.0,0.0,93,0.00,,,0.33,VWS V14.01,2014-01-15 03:58:00,
2014-01-14 23:00:00,38.9,37.3,29.89,ENE,66,0.0,0.0,94,0.00,,,0.33,VWS V14.01,2014-01-15 04:00:00,
2014-01-14 23:01:00,38.9,37.3,29.89,ENE,66,0.0,0.0,94,0.00,,,0.33,VWS V14.01,2014-01-15 04:01:00,
2014-01-14 23:02:00,38.9,37.3,29.89,ENE,66,0.0,0.0,94,0.00,,,0.33,VWS V14.01,2014-01-15 04:02:00,
2014-01-14 23:03:00,39.8,38.2,29.90,ENE,66,0.0,0.0,94,0.00,,,0.33,VWS V14.01,2014-01-15 04:03:00,
2014-01-14 23:04:00,38.9,37.3,29.89,ENE,66,0.0,0.0,94,0.00,,,0.33,VWS V14.01,2014-01-15 04:04:00,
2014-01-14 23:05:00,38.9,37.3,29.89,ENE,66,0.0,0.0,94,0.00,,,0.33,VWS V14.01,2014-01-15 04:05:00,
2014-01-14 23:06:00,38.9,37.3,29.89,ENE,66,0.0,0.0,94,0.00,,,0.33,VWS V14.01,2014-01-15 04:06:00,
2014-01-14 23:07:00,38.9,37.3,29.89,ENE,66,0.0,0.0,94,0.00,,,0.33,VWS V14.01,2014-01-15 04:07:00,
2014-01-14 23:08:00,39.6,38.0,29.90,ENE,66,0.0,0.0,94,0.00,,,0.33,VWS V14.01,2014-01-15 04:08:00,
2014-01-14 23:13:00,39.6,38.0,29.90,ENE,66,0.0,0.0,94,0.00,,,0.33,VWS V14.01,2014-01-15 04:13:00,
2014-01-14 23:18:00,39.5,37.9,29.90,ENE,66,0.0,0.0,94,0.00,,,0.33,VWS V14.01,2014-01-15 04:18:00,
2014-01-14 23:23:00,39.5,37.9,29.90,ENE,66,0.0,0.0,94,0.00,,,0.33,VWS V14.01,2014-01-15 04:23:00,
2014-01-14 23:28:00,39.5,37.9,29.90,ENE,66,0.0,0.0,94,0.00,,,0.33,VWS V14.01,2014-01-15 04:28:00,
2014-01-14 23:30:00,39.2,37.9,29.89,ENE,66,0.0,0.0,95,0.00,,,0.00,VWS V14.01,2014-01-15 04:30:00,
2014-01-14 23:33:00,39.3,37.7,29.90,ENE,66,0.0,0.0,94,0.00,,,0.33,VWS V14.01,2014-01-15 04:33:00,
2014-01-14 23:38:00,39.3,37.7,29.90,ENE,66,0.0,0.0,94,0.00,,,0.33,VWS V14.01,2014-01-15 04:38:00,
2014-01-14 23:43:00,39.3,37.7,29.90,ENE,66,0.0,0.0,94,0.00,,,0.33,VWS V14.01,2014-01-15 04:43:00,
2014-01-14 23:48:00,39.2,37.6,29.90,ENE,66,0.0,0.0,94,0.00,,,0.33,VWS V14.01,2014-01-15 04:48:00,
2014-01-14 23:53:00,39.1,37.5,29.90,ENE,66,0.0,0.0,94,0.00,,,0.33,VWS V14.01,2014-01-15 04:53:00,
2014-01-14 23:58:00,39.1,37.5,29.90,ENE,66,0.0,0.0,94,0.00,,,0.33,VWS V14.01,2014-01-15 04:58:00,